Time;durP1;ratioP1;P1;durP2;ratioP2;P2;SDS_P1;SDS_P2;PMS_P1;PMS_P2;Temp;Humidity;BMP_temperature;BMP_pressure;BME280_temperature;BME280_humidity;BME280_pressure;Samples;Min_cycle;Max_cycle;Signal;HPM_P1;HPM_P2
2022/09/08 00:02:19;;;;;;;2.33;2.10;;;;;;;24.79;68.28;97026.69;5072293;28;20687;-32
2022/09/08 00:04:46;;;;;;;2.30;1.80;;;;;;;24.82;68.46;97015.56;5066644;28;20212;-32
2022/09/08 00:07:13;;;;;;;2.37;2.17;;;;;;;24.81;68.88;97019.00;5073224;28;20220;-32
2022/09/08 00:09:39;;;;;;;1.97;1.87;;;;;;;24.81;69.00;97019.84;5073216;28;20196;-33
2022/09/08 00:12:06;;;;;;;2.10;1.90;;;;;;;24.81;68.49;97039.56;5067837;28;20674;-32
2022/09/08 00:14:32;;;;;;;2.07;1.60;;;;;;;24.80;68.70;97048.09;5064547;28;20192;-32
2022/09/08 00:16:59;;;;;;;1.97;1.80;;;;;;;24.78;68.75;97022.38;5071367;28;20569;-32
2022/09/08 00:19:26;;;;;;;1.93;1.83;;;;;;;24.80;68.86;97017.25;5071810;28;20200;-32
2022/09/08 00:21:53;;;;;;;2.53;2.10;;;;;;;24.77;68.80;96999.22;5072463;28;20196;-32
2022/09/08 00:24:19;;;;;;;2.30;2.10;;;;;;;24.78;68.39;96999.25;5066208;28;20599;-32
2022/09/08 00:26:46;;;;;;;2.97;1.80;;;;;;;24.80;68.51;97004.41;5087740;22;20223;-24
2022/09/08 00:29:12;;;;;;;2.13;2.03;;;;;;;24.80;68.56;96996.69;5090407;28;20200;-24
2022/09/08 00:31:39;;;;;;;2.10;1.90;;;;;;;24.80;68.79;96992.41;5081928;28;20578;-24
2022/09/08 00:34:06;;;;;;;1.80;1.70;;;;;;;24.80;68.85;96982.13;5082334;28;20196;-24
2022/09/08 00:36:33;;;;;;;2.80;1.70;;;;;;;24.80;68.99;96982.13;5084433;28;20188;-23
2022/09/08 00:39:00;;;;;;;2.07;1.80;;;;;;;24.80;68.73;96974.44;5073103;28;20204;-24
2022/09/08 00:41:28;;;;;;;2.00;1.90;;;;;;;24.80;68.67;96963.28;5066958;28;20288;-24
2022/09/08 00:43:59;;;;;;;2.50;2.10;;;;;;;24.80;68.95;96963.28;5054661;28;20671;-24
2022/09/08 00:46:47;;;;;;;2.30;2.10;;;;;;;24.80;68.67;96961.56;5068148;28;20223;-25
2022/09/08 00:49:21;;;;;;;2.10;1.90;;;;;;;24.79;68.94;96959.88;5054890;28;20201;-23
2022/09/08 00:51:50;;;;;;;1.97;1.87;;;;;;;24.73;68.44;96939.25;5056547;28;20211;-24
2022/09/08 00:54:17;;;;;;;2.10;2.00;;;;;;;24.70;68.81;96930.66;5065242;28;20210;-24
2022/09/08 00:56:44;;;;;;;2.17;1.97;;;;;;;24.74;69.00;96922.97;5046268;28;20235;-23
2022/09/08 00:59:11;;;;;;;1.70;1.60;;;;;;;24.75;68.50;96955.53;5067516;28;20655;-24
2022/09/08 01:01:38;;;;;;;2.70;1.90;;;;;;;24.80;68.88;96940.16;5063039;28;20199;-24
2022/09/08 01:04:05;;;;;;;1.97;1.83;;;;;;;24.79;68.55;96929.03;5066974;28;20208;-24
2022/09/08 01:12:45;;;;;;;2.27;2.10;;;;;;;24.74;68.70;96874.16;5073260;28;20205;-24
2022/09/08 01:15:15;;;;;;;1.90;1.80;;;;;;;24.78;68.65;96893.03;5054000;28;20193;-25
2022/09/08 01:17:42;;;;;;;1.90;1.80;;;;;;;24.78;68.32;96899.00;5062413;28;20229;-25
2022/09/08 01:20:08;;;;;;;1.90;1.80;;;;;;;24.72;68.52;96882.72;5072739;28;20688;-24
2022/09/08 01:23:09;;;;;;;1.97;1.87;;;;;;;24.78;68.61;96890.47;5060084;28;20209;-24
2022/09/08 01:26:06;;;;;;;1.80;1.70;;;;;;;24.78;68.62;96885.31;5056131;28;20197;-24
2022/09/08 01:28:35;;;;;;;2.03;1.80;;;;;;;24.78;68.58;96890.47;5067135;28;20223;-23
2022/09/08 01:31:02;;;;;;;1.90;1.80;;;;;;;24.71;68.77;96884.41;5066768;28;20196;-24
2022/09/08 01:33:29;;;;;;;2.07;1.70;;;;;;;24.77;68.93;96887.03;5054350;28;20261;-24
2022/09/08 01:35:56;;;;;;;1.90;1.80;;;;;;;24.78;68.92;96877.63;5062591;28;20223;-29
2022/09/08 01:38:23;;;;;;;1.77;1.67;;;;;;;24.79;68.49;96884.47;5067836;28;20216;-25
2022/09/08 01:40:50;;;;;;;2.63;1.93;;;;;;;24.78;69.00;96893.88;5062289;28;20197;-23
2022/09/08 01:43:16;;;;;;;1.83;1.73;;;;;;;24.77;68.85;96917.88;5059213;28;20201;-24
2022/09/08 01:45:43;;;;;;;2.07;1.87;;;;;;;24.79;68.58;96923.00;5063575;28;20204;-23
2022/09/08 01:48:09;;;;;;;1.70;1.60;;;;;;;24.78;68.65;96917.00;5062856;28;20232;-24
2022/09/08 01:50:36;;;;;;;2.03;1.80;;;;;;;24.79;68.36;96907.59;5057424;28;20672;-23
2022/09/08 01:53:03;;;;;;;1.90;1.80;;;;;;;24.78;68.47;96919.56;5060675;28;20623;-23
2022/09/08 01:55:29;;;;;;;2.17;2.00;;;;;;;24.79;68.77;96957.28;5064639;28;20694;-24
2022/09/08 01:57:56;;;;;;;1.80;1.70;;;;;;;24.67;68.42;96961.47;5066539;28;20216;-24
2022/09/08 02:00:23;;;;;;;2.07;1.90;;;;;;;24.79;68.37;96982.13;5055832;28;20205;-24
2022/09/08 02:02:49;;;;;;;1.90;1.80;;;;;;;24.79;68.69;96933.28;5058515;28;20401;-23
2022/09/08 02:05:16;;;;;;;1.97;1.80;;;;;;;24.78;68.40;96911.84;5064319;28;20207;-24
2022/09/08 02:07:49;;;;;;;1.90;1.80;;;;;;;24.78;68.39;96977.84;5062283;28;20642;-24
2022/09/08 02:10:16;;;;;;;1.73;1.63;;;;;;;24.78;68.98;96954.72;5065043;28;20201;-24
2022/09/08 02:12:43;;;;;;;1.70;1.60;;;;;;;24.78;68.71;96911.84;5067650;28;20667;-24
2022/09/08 02:15:11;;;;;;;1.77;1.63;;;;;;;24.77;68.58;96917.00;5061150;28;20603;-25
2022/09/08 02:17:37;;;;;;;1.80;1.70;;;;;;;24.77;68.54;96889.59;5065376;28;20722;-24
2022/09/08 02:20:04;;;;;;;1.70;1.60;;;;;;;24.77;68.58;96884.44;5060963;28;20193;-24
2022/09/08 02:22:32;;;;;;;1.97;1.83;;;;;;;24.77;68.61;96899.88;5062387;28;20224;-24
2022/09/08 02:24:58;;;;;;;1.80;1.70;;;;;;;24.78;69.00;96893.88;5061014;28;20204;-23
2022/09/08 02:27:25;;;;;;;2.00;1.80;;;;;;;24.78;68.76;96873.31;5054316;28;20217;-24
2022/09/08 02:29:51;;;;;;;1.87;1.70;;;;;;;24.78;69.00;96875.88;5058460;28;20204;-23
2022/09/08 02:32:18;;;;;;;3.67;1.87;;;;;;;24.78;68.45;96869.91;5069528;28;20655;-24
2022/09/08 02:34:44;;;;;;;1.70;1.60;;;;;;;24.78;68.83;96862.19;5062726;28;20568;-24
2022/09/08 02:37:11;;;;;;;1.70;1.60;;;;;;;24.78;68.56;96867.34;5059043;28;20217;-24
2022/09/08 02:39:37;;;;;;;1.80;1.70;;;;;;;24.78;68.57;96875.88;5052265;28;20201;-24
2022/09/08 02:42:04;;;;;;;1.87;1.67;;;;;;;24.79;68.61;96876.75;5063715;28;20208;-24
2022/09/08 02:44:31;;;;;;;1.70;1.60;;;;;;;24.78;68.30;96878.44;5059325;28;20395;-25
2022/09/08 02:46:57;;;;;;;1.80;1.70;;;;;;;24.78;68.39;96878.44;5066980;28;20253;-25
2022/09/08 02:49:24;;;;;;;1.80;1.70;;;;;;;24.78;68.45;96870.75;5063869;28;21266;-24
2022/09/08 02:51:50;;;;;;;1.97;1.87;;;;;;;24.73;68.52;96861.28;5065742;28;20204;-24
2022/09/08 02:54:17;;;;;;;1.80;1.70;;;;;;;24.78;68.39;96881.03;5058743;28;20197;-24
2022/09/08 02:56:43;;;;;;;1.70;1.60;;;;;;;24.78;68.61;96887.91;5059764;28;20213;-24
2022/09/08 02:59:10;;;;;;;2.47;1.73;;;;;;;24.79;68.87;96899.88;5054782;28;20204;-24
2022/09/08 03:01:36;;;;;;;1.93;1.80;;;;;;;24.79;68.38;96907.59;5062254;28;20567;-24
2022/09/08 03:04:05;;;;;;;1.70;1.60;;;;;;;24.79;68.72;96925.59;5068112;28;20235;-24
2022/09/08 03:06:32;;;;;;;1.70;1.60;;;;;;;24.77;68.81;96925.56;5068196;28;20244;-24
2022/09/08 03:08:59;;;;;;;2.37;1.83;;;;;;;24.77;68.77;96910.16;5053305;28;20200;-24
2022/09/08 03:11:25;;;;;;;1.77;1.67;;;;;;;24.77;68.70;96914.41;5056571;28;20200;-24
2022/09/08 03:13:52;;;;;;;1.70;1.60;;;;;;;24.77;68.73;96905.00;5062201;28;20663;-24
2022/09/08 03:16:18;;;;;;;2.30;2.03;;;;;;;24.78;68.74;96903.31;5069135;28;20204;-24
2022/09/08 03:18:45;;;;;;;1.73;1.60;;;;;;;24.77;68.71;96899.88;5063924;28;20714;-23
2022/09/08 03:21:12;;;;;;;2.13;1.90;;;;;;;24.78;68.48;96893.03;5061418;28;20204;-25
2022/09/08 03:23:38;;;;;;;1.80;1.70;;;;;;;24.77;68.38;96897.31;5051888;28;20711;-25
2022/09/08 03:26:07;;;;;;;1.60;1.50;;;;;;;24.77;68.81;96889.59;5069386;28;20207;-24
2022/09/08 03:28:33;;;;;;;1.83;1.67;;;;;;;24.78;68.75;96880.19;5057884;28;20661;-24
2022/09/08 03:31:00;;;;;;;1.60;1.50;;;;;;;24.77;68.63;96879.31;5057380;28;20208;-24
2022/09/08 03:33:28;;;;;;;1.73;1.63;;;;;;;24.77;68.47;96871.59;5058187;28;20192;-23
2022/09/08 03:35:59;;;;;;;1.63;1.53;;;;;;;24.77;68.40;96861.31;5062281;28;20197;-25
2022/09/08 03:38:25;;;;;;;1.63;1.53;;;;;;;24.76;68.55;96857.03;5060863;28;20208;-24
2022/09/08 03:40:52;;;;;;;1.90;1.70;;;;;;;24.78;68.36;96868.16;5059069;28;20204;-25
2022/09/08 03:43:18;;;;;;;1.83;1.70;;;;;;;24.78;68.29;96859.63;5066737;28;20204;-23
2022/09/08 03:45:45;;;;;;;2.07;1.80;;;;;;;24.77;68.23;96851.03;5068875;28;20207;-24
2022/09/08 03:48:12;;;;;;;1.97;1.87;;;;;;;24.72;68.50;96832.16;5063820;28;20231;-24
2022/09/08 03:50:39;;;;;;;1.77;1.67;;;;;;;23.38;68.83;96605.31;5070295;28;20659;-24
2022/09/08 03:53:05;;;;;;;1.60;1.50;;;;;;;24.78;68.55;96854.47;5063503;28;20208;-25
2022/09/08 03:55:32;;;;;;;1.60;1.50;;;;;;;24.78;68.87;96860.47;5068066;28;20227;-24
2022/09/08 03:57:59;;;;;;;1.53;1.43;;;;;;;24.77;68.29;96853.63;5057995;28;20223;-24
2022/09/08 04:00:26;;;;;;;1.97;1.70;;;;;;;24.77;68.63;96861.31;5060182;28;20193;-24
2022/09/08 04:02:52;;;;;;;1.50;1.40;;;;;;;24.78;68.61;96865.59;5054654;28;20208;-24
2022/09/08 04:05:19;;;;;;;1.50;1.40;;;;;;;24.77;68.87;96858.75;5065081;28;20262;-25
2022/09/08 04:07:46;;;;;;;1.70;1.60;;;;;;;24.76;68.45;96862.19;5066314;28;20591;-24
2022/09/08 04:10:12;;;;;;;1.73;1.63;;;;;;;24.76;68.90;96864.75;5060068;28;20197;-23
2022/09/08 04:12:43;;;;;;;1.80;1.70;;;;;;;24.70;68.46;96857.00;5070741;28;20740;-25
2022/09/08 04:15:10;;;;;;;1.57;1.47;;;;;;;24.76;68.79;96872.47;5060588;28;20201;-24
2022/09/08 04:17:37;;;;;;;1.67;1.57;;;;;;;24.72;68.74;96859.59;5070252;28;20234;-24
2022/09/08 04:20:04;;;;;;;1.87;1.77;;;;;;;24.77;68.56;96875.88;5066347;28;20192;-24
2022/09/08 04:22:30;;;;;;;2.17;1.63;;;;;;;24.77;68.55;96878.44;5072857;28;20200;-25
2022/09/08 04:24:57;;;;;;;1.60;1.50;;;;;;;24.77;68.48;96886.16;5073304;28;20192;-25
2022/09/08 04:27:23;;;;;;;1.57;1.47;;;;;;;24.77;68.38;96883.59;5065944;28;20228;-23
2022/09/08 04:29:50;;;;;;;1.70;1.60;;;;;;;24.78;68.61;96893.03;5072135;28;20196;-24
2022/09/08 04:32:18;;;;;;;1.60;1.50;;;;;;;24.77;68.36;96894.72;5066319;28;20204;-24
2022/09/08 04:34:44;;;;;;;1.70;1.60;;;;;;;24.78;68.75;96895.59;5073935;28;20200;-24
2022/09/08 04:37:11;;;;;;;1.93;1.60;;;;;;;24.77;68.98;96897.31;5067120;28;20232;-24
2022/09/08 04:39:37;;;;;;;1.67;1.57;;;;;;;24.77;69.66;96889.59;5068775;28;20201;-24
2022/09/08 04:42:04;;;;;;;2.60;1.70;;;;;;;24.79;70.07;96893.03;5069450;28;20200;-24
2022/09/08 04:44:31;;;;;;;2.17;1.77;;;;;;;24.79;70.45;96895.63;5066339;28;20219;-24
2022/09/08 04:46:57;;;;;;;2.20;1.67;;;;;;;24.79;70.24;96897.31;5055209;28;20240;-24
2022/09/08 04:49:24;;;;;;;2.90;1.87;;;;;;;24.79;70.65;96899.88;5056167;28;20204;-24
2022/09/08 04:51:52;;;;;;;2.77;1.70;;;;;;;24.79;70.78;96895.63;5061172;28;20196;-24
2022/09/08 04:54:19;;;;;;;2.50;1.77;;;;;;;24.75;71.06;96888.72;5056451;28;20204;-25
2022/09/08 04:56:45;;;;;;;2.20;1.50;;;;;;;24.79;70.88;96895.63;5053934;28;20223;-24
2022/09/08 04:59:12;;;;;;;8.27;1.80;;;;;;;24.79;70.49;96902.44;5055992;28;20192;-23
2022/09/08 05:01:38;;;;;;;5.97;1.83;;;;;;;24.79;70.66;96902.44;5062179;28;20651;-24
2022/09/08 05:04:05;;;;;;;2.30;1.60;;;;;;;24.78;70.96;96900.75;5073366;28;20250;-24
2022/09/08 05:06:32;;;;;;;2.80;1.70;;;;;;;24.77;70.89;96905.00;5063391;28;20201;-26
2022/09/08 05:08:59;;;;;;;2.67;1.70;;;;;;;24.76;70.36;96908.44;5057262;28;20221;-22
2022/09/08 05:11:27;;;;;;;3.27;1.90;;;;;;;24.76;70.38;96916.16;5064998;28;20206;-24
2022/09/08 05:13:53;;;;;;;3.70;1.57;;;;;;;24.72;70.55;96910.97;5072698;28;20317;-24
2022/09/08 05:16:21;;;;;;;2.83;1.73;;;;;;;24.77;70.33;96924.69;5066298;28;20655;-24
2022/09/08 05:18:52;;;;;;;1.63;1.43;;;;;;;24.76;69.71;96923.88;5064327;28;20189;-24
2022/09/08 05:21:18;;;;;;;1.57;1.40;;;;;;;24.76;70.07;96923.88;5072240;28;20199;-24
2022/09/08 05:23:47;;;;;;;2.53;1.83;;;;;;;24.77;69.87;96927.28;5069993;28;20208;-25
2022/09/08 05:26:14;;;;;;;3.83;1.87;;;;;;;24.77;69.43;96946.13;5065475;28;20201;-24
2022/09/08 05:28:41;;;;;;;2.07;1.50;;;;;;;24.76;69.43;96957.28;5069514;28;20228;-23
2022/09/08 05:31:09;;;;;;;1.50;1.40;;;;;;;24.77;69.20;96950.41;5067589;28;20199;-25
2022/09/08 05:33:35;;;;;;;1.60;1.50;;;;;;;24.76;69.50;96957.28;5072339;28;20224;-24
2022/09/08 05:36:17;;;;;;;2.00;1.70;;;;;;;24.77;69.53;96968.38;5073056;28;20579;-25
2022/09/08 05:38:44;;;;;;;3.33;1.70;;;;;;;24.78;69.54;96968.41;5065595;28;20212;-24
2022/09/08 05:41:11;;;;;;;2.93;2.10;;;;;;;24.78;69.69;96970.97;5061623;28;20228;-23
2022/09/08 05:43:38;;;;;;;2.80;1.70;;;;;;;24.78;70.18;96970.97;5067327;28;20196;-24
2022/09/08 05:46:04;;;;;;;10.17;1.93;;;;;;;24.78;69.60;96972.72;5072387;28;20192;-24
2022/09/08 05:48:31;;;;;;;2.43;1.77;;;;;;;24.72;69.36;96954.66;5062833;28;20228;-24
2022/09/08 05:50:58;;;;;;;1.77;1.50;;;;;;;24.78;69.51;96965.84;5071654;28;20211;-24
2022/09/08 05:53:24;;;;;;;1.63;1.37;;;;;;;24.78;69.25;96960.69;5068335;28;20581;-24
2022/09/08 05:55:59;;;;;;;2.63;1.40;;;;;;;24.79;69.30;96961.56;5065257;28;20200;-24
2022/09/08 05:58:26;;;;;;;2.87;1.60;;;;;;;24.79;69.41;96964.13;5061306;28;20216;-24
2022/09/08 06:01:00;;;;;;;2.97;1.67;;;;;;;24.76;69.04;96966.69;5055692;28;20685;-24
2022/09/08 06:03:27;;;;;;;1.60;1.50;;;;;;;24.78;69.52;96970.13;5065855;28;20196;-24
2022/09/08 06:05:54;;;;;;;2.20;1.50;;;;;;;24.70;69.41;96967.50;5068906;28;20202;-25
2022/09/08 06:08:21;;;;;;;2.23;1.50;;;;;;;24.77;69.34;96976.97;5066683;28;20225;-23
2022/09/08 06:10:51;;;;;;;2.30;1.37;;;;;;;24.78;69.50;96988.13;5059312;28;20223;-24
2022/09/08 06:13:21;;;;;;;2.17;1.70;;;;;;;24.79;68.96;96979.56;5067103;28;20209;-24
2022/09/08 06:15:48;;;;;;;1.70;1.60;;;;;;;24.78;69.50;96978.69;5057249;28;20219;-24
2022/09/08 06:18:16;;;;;;;3.27;1.60;;;;;;;24.78;69.17;96976.13;5071863;28;20554;-24
2022/09/08 06:20:43;;;;;;;2.00;1.70;;;;;;;24.78;68.91;96973.53;5063684;28;20208;-24
2022/09/08 06:23:11;;;;;;;1.50;1.40;;;;;;;24.79;68.79;96977.84;5067264;28;20197;-24
2022/09/08 06:25:45;;;;;;;1.70;1.60;;;;;;;24.79;69.38;96977.00;5055347;28;20207;-24
2022/09/08 06:28:32;;;;;;;2.17;1.40;;;;;;;24.79;68.87;96985.56;5094563;22;20227;-31
2022/09/08 06:30:59;;;;;;;1.50;1.40;;;;;;;24.69;68.91;96973.47;5082969;28;20214;-31
2022/09/08 06:33:34;;;;;;;1.67;1.50;;;;;;;24.79;68.70;96988.13;5085835;28;20719;-31
2022/09/08 06:36:03;;;;;;;3.43;1.53;;;;;;;24.80;68.82;96988.97;5072736;28;20290;-32
2022/09/08 06:38:47;;;;;;;2.03;1.70;;;;;;;24.80;68.76;96994.13;5082252;28;20211;-32
2022/09/08 06:41:20;;;;;;;1.90;1.73;;;;;;;24.79;68.75;96998.41;5080211;28;20559;-31
2022/09/08 06:43:50;;;;;;;1.53;1.37;;;;;;;24.80;68.88;97000.13;5069830;28;20193;-32
2022/09/08 06:46:21;;;;;;;1.73;1.50;;;;;;;24.80;68.82;96999.25;5074675;28;20199;-32
2022/09/08 06:48:48;;;;;;;2.40;1.57;;;;;;;24.80;68.94;97004.41;5067511;28;20220;-32
2022/09/08 06:51:35;;;;;;;1.50;1.20;;;;;;;24.79;69.03;96998.41;5092015;28;20207;-31
2022/09/08 06:54:04;;;;;;;2.70;1.40;;;;;;;24.70;68.90;96988.06;5092076;28;20195;-32
2022/09/08 06:56:53;;;;;;;1.57;1.47;;;;;;;24.79;68.79;97003.56;5090682;28;20207;-32
2022/09/08 07:00:33;;;;;;;1.80;1.30;;;;;;;24.79;68.73;97007.81;5088484;28;20199;-31
2022/09/08 07:03:03;;;;;;;1.60;1.50;;;;;;;24.79;68.70;97011.28;5032031;28;20212;-32
2022/09/08 07:06:08;;;;;;;1.60;1.50;;;;;;;24.80;68.97;97012.09;5042625;28;20200;-32
2022/09/08 07:08:38;;;;;;;1.63;1.40;;;;;;;24.79;68.87;97015.53;5022036;28;20303;-32
2022/09/08 07:11:39;;;;;;;1.57;1.47;;;;;;;24.78;68.85;97014.66;5076708;28;20201;-31
2022/09/08 07:14:27;;;;;;;1.77;1.40;;;;;;;24.79;69.11;97018.09;5075054;28;20683;-31
2022/09/08 07:17:21;;;;;;;1.50;1.40;;;;;;;24.79;68.61;97024.13;5090852;28;20199;-31
2022/09/08 07:19:53;;;;;;;2.90;1.50;;;;;;;24.79;69.02;97025.81;5091390;28;20670;-32
2022/09/08 07:22:32;;;;;;;1.60;1.50;;;;;;;24.79;68.80;97026.69;5091281;28;20199;-32
2022/09/08 07:25:06;;;;;;;1.87;1.40;;;;;;;24.76;69.05;97018.97;5090006;28;20203;-32
2022/09/08 07:27:33;;;;;;;1.50;1.40;;;;;;;24.72;68.97;97017.19;5089812;28;20230;-32
2022/09/08 07:30:00;;;;;;;1.57;1.30;;;;;;;24.79;68.69;97031.84;5073272;28;20209;-32
2022/09/08 07:32:33;;;;;;;1.93;1.40;;;;;;;24.79;68.75;97031.84;5090046;28;20651;-31
2022/09/08 07:35:05;;;;;;;1.60;1.30;;;;;;;24.79;68.59;97034.41;5089503;28;20196;-30
2022/09/08 07:37:53;;;;;;;3.57;1.60;;;;;;;24.79;68.82;97039.53;5091547;28;20212;-31
2022/09/08 07:40:31;;;;;;;1.50;1.40;;;;;;;24.78;68.72;97034.38;5089643;28;20195;-32
2022/09/08 07:42:58;;;;;;;1.87;1.30;;;;;;;24.75;68.82;97037.78;5089930;28;20207;-32
2022/09/08 07:45:44;;;;;;;1.50;1.40;;;;;;;24.72;68.54;97029.19;5084199;28;20347;-31
2022/09/08 07:48:29;;;;;;;3.20;1.57;;;;;;;24.80;68.71;97046.41;5081840;28;20226;-31
2022/09/08 07:51:15;;;;;;;1.60;1.30;;;;;;;24.81;68.83;97049.84;5083682;28;20548;-31
2022/09/08 07:53:58;;;;;;;3.57;1.70;;;;;;;24.80;68.72;97053.22;5088815;28;20196;-31
2022/09/08 07:56:39;;;;;;;1.87;1.57;;;;;;;24.80;68.60;97054.09;5090751;28;20195;-32
2022/09/08 07:59:34;;;;;;;3.13;1.63;;;;;;;24.69;68.87;97044.59;5077671;28;20190;-31
2022/09/08 08:02:32;;;;;;;2.00;1.40;;;;;;;24.80;69.01;97060.94;5072244;28;20230;-31
2022/09/08 08:05:06;;;;;;;1.97;1.53;;;;;;;24.72;68.62;97049.75;5090640;28;20698;-32
2022/09/08 08:08:04;;;;;;;1.30;1.20;;;;;;;24.79;68.85;97062.69;5088336;28;20223;-32
2022/09/08 08:10:38;;;;;;;1.67;1.40;;;;;;;24.75;68.50;97062.63;5085380;28;20208;-32
2022/09/08 08:13:43;;;;;;;1.83;1.40;;;;;;;24.80;68.74;97069.53;5088745;28;20199;-31
2022/09/08 08:16:12;;;;;;;1.40;1.30;;;;;;;24.80;68.91;97074.66;5081680;28;20194;-31
2022/09/08 08:18:52;;;;;;;2.40;1.50;;;;;;;24.80;68.58;97072.09;5083257;28;20230;-31
2022/09/08 08:21:31;;;;;;;1.50;1.40;;;;;;;24.81;68.73;97070.41;5085671;28;20195;-31
2022/09/08 08:24:14;;;;;;;3.57;1.40;;;;;;;24.80;68.72;97066.09;5090359;28;20202;-32
2022/09/08 08:26:45;;;;;;;1.60;1.47;;;;;;;24.77;69.06;97069.50;5089191;28;20233;-31
2022/09/08 08:29:34;;;;;;;2.20;1.50;;;;;;;24.81;68.84;97078.09;5089116;28;20222;-32
2022/09/08 08:32:13;;;;;;;1.60;1.50;;;;;;;24.81;69.01;97070.41;5084076;28;20223;-31
2022/09/08 08:35:12;;;;;;;14.80;1.70;;;;;;;24.81;69.29;97075.53;5081987;28;20617;-32
2022/09/08 08:37:39;;;;;;;1.67;1.23;;;;;;;24.81;68.77;97065.25;5087769;28;20215;-32
2022/09/08 08:40:38;;;;;;;1.47;1.37;;;;;;;24.81;68.92;97070.41;5069236;28;20223;-32
2022/09/08 08:43:24;;;;;;;2.33;1.30;;;;;;;24.81;68.71;97075.53;5086209;28;20192;-32
2022/09/08 08:46:27;;;;;;;1.47;1.37;;;;;;;24.81;68.49;97073.81;5087727;28;20675;-31
2022/09/08 08:49:18;;;;;;;1.40;1.30;;;;;;;24.81;68.36;97060.97;5083663;28;20269;-32
2022/09/08 08:51:57;;;;;;;1.60;1.37;;;;;;;24.82;68.49;97054.13;5081485;28;20196;-32
2022/09/08 08:54:32;;;;;;;2.20;1.50;;;;;;;24.81;68.50;97052.41;5090436;28;20234;-31
2022/09/08 08:57:16;;;;;;;2.40;1.30;;;;;;;24.79;68.56;97057.53;5074890;28;20200;-31
2022/09/08 09:00:01;;;;;;;1.40;1.23;;;;;;;24.80;68.94;97059.25;5089522;28;20395;-31
2022/09/08 09:02:38;;;;;;;1.30;1.20;;;;;;;24.80;69.03;97068.66;5094010;28;20674;-31
2022/09/08 09:05:19;;;;;;;1.87;1.50;;;;;;;24.80;68.91;97061.81;5085953;28;20200;-32
2022/09/08 09:08:30;;;;;;;1.50;1.40;;;;;;;24.80;68.45;97072.09;5093303;28;20226;-32
2022/09/08 09:11:21;;;;;;;1.67;1.40;;;;;;;24.77;68.39;97066.06;5079346;28;20242;-32
2022/09/08 09:13:55;;;;;;;1.50;1.40;;;;;;;24.80;68.30;97074.66;5089772;28;20200;-32
2022/09/08 09:16:27;;;;;;;1.50;1.40;;;;;;;24.80;68.37;97072.09;5088272;28;20192;-31
2022/09/08 09:19:21;;;;;;;1.40;1.30;;;;;;;24.80;68.63;97077.22;5089294;28;20386;-32
2022/09/08 09:22:00;;;;;;;3.33;1.40;;;;;;;24.81;68.66;97085.81;5090076;28;20623;-31
2022/09/08 09:24:59;;;;;;;2.03;1.30;;;;;;;24.80;68.77;97084.94;5091697;28;20206;-31
2022/09/08 09:27:42;;;;;;;3.13;1.40;;;;;;;24.81;68.48;97080.69;5080345;28;20231;-31
2022/09/08 09:30:14;;;;;;;2.23;1.57;;;;;;;24.80;68.58;97079.81;5083223;28;20222;-31
2022/09/08 09:33:04;;;;;;;1.80;1.50;;;;;;;24.81;68.25;97072.97;5090176;28;20203;-31
2022/09/08 09:36:16;;;;;;;1.50;1.40;;;;;;;24.81;68.50;97065.25;5080792;28;20203;-32
2022/09/08 09:38:56;;;;;;;1.47;1.30;;;;;;;24.80;68.22;97073.78;5085971;28;20221;-31
2022/09/08 09:41:25;;;;;;;1.70;1.53;;;;;;;24.80;68.35;97064.38;5089350;28;20191;-31
2022/09/08 09:44:15;;;;;;;1.50;1.40;;;;;;;24.80;68.54;97072.09;5089828;28;20294;-31
2022/09/08 09:47:20;;;;;;;1.60;1.40;;;;;;;24.81;68.36;97071.25;5087388;28;20578;-31
2022/09/08 09:50:06;;;;;;;1.50;1.40;;;;;;;24.81;68.53;97065.25;5081234;28;20947;-31
2022/09/08 09:52:49;;;;;;;1.10;1.10;;;;;;;24.80;68.51;97055.81;5086666;28;20585;-31
2022/09/08 09:55:43;;;;;;;1.40;1.30;;;;;;;24.80;68.47;97051.53;5080827;28;20206;-31
2022/09/08 09:58:13;;;;;;;2.37;1.60;;;;;;;24.79;68.21;97036.97;5082224;28;20215;-31
2022/09/08 10:01:06;;;;;;;1.50;1.30;;;;;;;24.77;68.41;97046.38;5080032;28;20267;-32
2022/09/08 10:03:56;;;;;;;1.50;1.40;;;;;;;24.77;68.25;97046.38;5086149;28;20609;-32
2022/09/08 10:07:01;;;;;;;2.07;1.30;;;;;;;24.78;68.53;97054.94;5080985;28;20207;-32
2022/09/08 10:10:17;;;;;;;1.10;1.10;;;;;;;24.77;68.75;97061.78;5021690;28;20277;-32
2022/09/08 10:12:55;;;;;;;1.40;1.30;;;;;;;24.78;68.41;97057.53;5041474;28;20204;-31
2022/09/08 10:15:59;;;;;;;2.23;1.40;;;;;;;24.79;68.81;97056.66;5090508;28;20195;-32
2022/09/08 10:18:58;;;;;;;1.90;1.33;;;;;;;24.79;68.69;97054.97;5088690;28;20215;-31
2022/09/08 10:21:43;;;;;;;2.77;1.40;;;;;;;24.79;68.56;97054.09;5088565;28;20202;-31
2022/09/08 10:24:36;;;;;;;2.00;1.60;;;;;;;24.79;68.22;97075.53;5082821;28;20206;-32
2022/09/08 10:27:33;;;;;;;1.87;1.60;;;;;;;24.79;68.40;97087.50;5087155;28;20198;-32
2022/09/08 10:30:19;;;;;;;2.40;1.40;;;;;;;24.80;68.33;97082.38;5091774;28;20227;-32
2022/09/08 10:33:07;;;;;;;1.97;1.43;;;;;;;24.80;68.42;97086.66;5091089;28;20245;-31
2022/09/08 10:35:38;;;;;;;1.37;1.27;;;;;;;24.80;68.74;97099.50;5090164;28;20183;-31
2022/09/08 10:38:19;;;;;;;1.93;1.53;;;;;;;24.80;68.33;97105.50;5088490;28;20693;-31
2022/09/08 10:41:15;;;;;;;1.67;1.40;;;;;;;24.80;68.37;97100.38;5087254;28;20200;-31
2022/09/08 10:43:45;;;;;;;1.30;1.20;;;;;;;24.80;68.42;97097.78;5074152;28;20614;-31
2022/09/08 10:46:26;;;;;;;2.17;1.23;;;;;;;24.80;68.53;97096.94;5089802;28;20196;-32
2022/09/08 10:49:30;;;;;;;1.40;1.30;;;;;;;24.81;68.61;97098.66;5087617;28;20227;-32
2022/09/08 10:52:32;;;;;;;1.50;1.40;;;;;;;24.80;68.69;97102.94;5089800;28;20199;-31
2022/09/08 10:55:27;;;;;;;2.17;1.50;;;;;;;24.80;68.72;97112.34;5056756;28;20472;-31
2022/09/08 10:57:56;;;;;;;1.40;1.30;;;;;;;24.78;68.43;97096.91;5075388;28;20231;-32
2022/09/08 11:00:23;;;;;;;1.97;1.53;;;;;;;24.68;68.81;97071.97;5091362;28;20192;-32
2022/09/08 11:03:01;;;;;;;1.40;1.30;;;;;;;24.80;68.93;97095.22;5075051;28;20204;-32
2022/09/08 11:05:42;;;;;;;2.57;1.60;;;;;;;24.80;68.47;97096.94;5087599;28;20647;-32
2022/09/08 11:08:30;;;;;;;2.17;1.40;;;;;;;24.79;68.68;97088.38;5075624;28;20225;-31
2022/09/08 11:11:05;;;;;;;2.20;1.10;;;;;;;24.80;68.67;97091.78;5089828;28;20198;-32
2022/09/08 11:13:53;;;;;;;1.23;1.13;;;;;;;24.81;68.46;97085.81;5091092;28;20195;-32
2022/09/08 11:16:45;;;;;;;2.47;1.30;;;;;;;24.80;68.70;97084.06;5077262;28;20203;-31
2022/09/08 11:19:21;;;;;;;1.50;1.40;;;;;;;24.80;68.55;97087.50;5083883;28;20207;-32
2022/09/08 11:22:14;;;;;;;1.47;1.30;;;;;;;24.78;68.68;97084.06;5083393;28;20207;-31
2022/09/08 11:24:45;;;;;;;1.20;1.10;;;;;;;24.81;68.46;97085.81;5083876;28;20299;-32
2022/09/08 11:27:53;;;;;;;2.70;1.30;;;;;;;24.81;68.19;97090.97;5082028;28;20231;-31
2022/09/08 11:30:21;;;;;;;1.37;1.27;;;;;;;24.81;68.58;97098.66;5059026;28;20220;-32
2022/09/08 11:32:51;;;;;;;1.60;1.50;;;;;;;24.80;68.65;97090.09;5076761;28;20215;-32
2022/09/08 11:35:27;;;;;;;1.67;1.30;;;;;;;24.81;68.21;97098.66;5073389;28;20204;-32
2022/09/08 11:37:54;;;;;;;3.80;1.30;;;;;;;24.81;68.30;97104.66;5079574;28;20235;-32
2022/09/08 11:41:02;;;;;;;1.40;1.30;;;;;;;24.81;68.75;97107.22;5081594;28;20191;-32
2022/09/08 11:43:40;;;;;;;8.47;1.50;;;;;;;24.81;68.21;97107.22;5027763;28;20631;-32
2022/09/08 11:46:33;;;;;;;2.17;1.40;;;;;;;24.81;68.19;97106.38;5078077;28;20208;-32
2022/09/08 11:49:18;;;;;;;2.03;1.50;;;;;;;24.81;68.20;97112.38;5068221;28;20234;-31
2022/09/08 11:52:45;;;;;;;1.57;1.47;;;;;;;24.81;68.53;97102.09;5081955;28;20238;-31
2022/09/08 11:55:26;;;;;;;2.17;1.50;;;;;;;24.81;68.25;97099.50;5080139;28;20240;-31
2022/09/08 11:57:59;;;;;;;2.97;1.60;;;;;;;24.78;68.30;97096.06;5076792;28;20223;-31
2022/09/08 12:00:51;;;;;;;2.23;1.37;;;;;;;24.81;68.73;97103.81;5088212;28;20234;-32
2022/09/08 12:03:27;;;;;;;1.50;1.40;;;;;;;24.82;68.51;97105.53;5080761;28;20653;-32
2022/09/08 12:06:14;;;;;;;5.83;1.60;;;;;;;24.81;68.62;97094.38;5089091;28;20203;-32
2022/09/08 12:09:28;;;;;;;5.10;1.60;;;;;;;24.82;68.48;97083.25;5082573;28;20234;-31
2022/09/08 12:12:23;;;;;;;3.50;1.50;;;;;;;24.82;68.38;97090.09;5088199;28;20200;-31
2022/09/08 12:14:55;;;;;;;3.00;1.43;;;;;;;24.82;68.31;97093.53;5087134;28;20206;-31
2022/09/08 12:18:04;;;;;;;2.73;1.53;;;;;;;24.78;68.68;97086.63;5088573;28;20557;-31
2022/09/08 12:21:05;;;;;;;1.90;1.47;;;;;;;24.81;68.56;97089.22;5098201;28;20202;-31